createdAt,value
2019-03-06T00:00:11.387Z,7.38
2019-03-06T00:02:11.345Z,7.38
2019-03-06T00:04:11.394Z,7.38
2019-03-06T00:06:16.577Z,7.38
2019-03-06T00:06:28.297Z,7.38
2019-03-06T00:08:11.287Z,7.38
2019-03-06T00:10:11.365Z,7.38
2019-03-06T00:12:11.418Z,7.44
2019-03-06T00:14:11.303Z,7.44
2019-03-06T00:16:11.425Z,7.5
2019-03-06T00:18:11.327Z,7.5
2019-03-06T00:20:11.381Z,7.56
2019-03-06T00:21:28.346Z,7.56
2019-03-06T00:22:11.346Z,7.56
2019-03-06T00:24:11.301Z,7.56
2019-03-06T00:26:11.297Z,7.5
2019-03-06T00:28:11.419Z,7.5
2019-03-06T00:30:11.308Z,7.56
2019-03-06T00:32:11.361Z,7.63
2019-03-06T00:34:11.290Z,7.56
2019-03-06T00:36:11.387Z,7.56
2019-03-06T00:36:28.337Z,7.56
2019-03-06T00:38:11.309Z,7.63
2019-03-06T00:40:11.294Z,7.69
2019-03-06T00:42:11.287Z,7.69
2019-03-06T00:44:11.288Z,7.63
2019-03-06T00:46:11.445Z,7.63
2019-03-06T00:48:11.385Z,7.69
2019-03-06T00:50:11.355Z,7.69
2019-03-06T00:51:28.267Z,7.69
2019-03-06T00:52:12.469Z,7.69
2019-03-06T00:54:11.431Z,7.69
2019-03-06T00:56:11.426Z,7.63
2019-03-06T00:58:11.287Z,7.63
2019-03-06T01:00:11.334Z,7.63
2019-03-06T01:02:11.444Z,7.63
2019-03-06T01:04:11.379Z,7.63
2019-03-06T01:06:11.372Z,7.63
2019-03-06T01:06:28.346Z,7.63
2019-03-06T01:08:11.390Z,7.63
2019-03-06T01:10:11.433Z,7.63
2019-03-06T01:12:12.186Z,7.63
2019-03-06T01:14:11.437Z,7.69
2019-03-06T01:16:11.285Z,7.69
2019-03-06T01:18:11.375Z,7.69
2019-03-06T01:20:11.310Z,7.69
2019-03-06T01:21:28.333Z,7.69
2019-03-06T01:22:11.370Z,7.69
2019-03-06T01:24:11.292Z,7.69
2019-03-06T01:26:11.380Z,7.69
2019-03-06T01:28:11.371Z,7.75
2019-03-06T01:30:11.385Z,7.75
2019-03-06T01:32:11.419Z,7.69
2019-03-06T01:34:11.432Z,7.69
2019-03-06T01:36:11.456Z,7.63
2019-03-06T01:36:28.255Z,7.63
2019-03-06T01:38:11.390Z,7.63
2019-03-06T01:40:11.370Z,7.63
2019-03-06T01:42:11.307Z,7.63
2019-03-06T01:44:11.325Z,7.63
2019-03-06T01:46:11.429Z,7.63
2019-03-06T01:48:11.307Z,7.63
2019-03-06T01:50:11.535Z,7.69
2019-03-06T01:51:28.362Z,7.69
2019-03-06T01:52:11.372Z,7.69
2019-03-06T01:54:11.287Z,7.63
2019-03-06T01:56:11.402Z,7.63
2019-03-06T01:58:11.437Z,7.69
2019-03-06T02:00:11.420Z,7.69
2019-03-06T02:02:11.295Z,7.63
2019-03-06T02:04:11.289Z,7.69
2019-03-06T02:06:12.267Z,7.69
2019-03-06T02:06:28.250Z,7.69
2019-03-06T02:08:11.414Z,7.69
2019-03-06T02:10:11.365Z,7.69
2019-03-06T02:12:11.398Z,7.69
2019-03-06T02:14:11.310Z,7.75
2019-03-06T02:16:11.380Z,7.75
2019-03-06T02:18:11.372Z,7.69
2019-03-06T02:20:11.429Z,7.63
2019-03-06T02:21:28.241Z,7.63
2019-03-06T02:22:11.313Z,7.56
2019-03-06T02:24:11.379Z,7.56
2019-03-06T02:26:11.421Z,7.63
2019-03-06T02:28:11.390Z,7.63
2019-03-06T02:30:11.378Z,7.69
2019-03-06T02:32:11.325Z,7.69
2019-03-06T02:34:11.311Z,7.75
2019-03-06T02:36:11.372Z,7.69
2019-03-06T02:36:28.221Z,7.69
2019-03-06T02:38:12.441Z,7.75
2019-03-06T02:40:12.623Z,7.69
2019-03-06T02:42:11.383Z,7.75
2019-03-06T02:44:11.458Z,7.75
2019-03-06T02:46:11.386Z,7.81
2019-03-06T02:48:11.439Z,7.75
2019-03-06T02:50:11.421Z,7.75
2019-03-06T02:51:28.340Z,7.81
2019-03-06T02:52:11.445Z,7.81
2019-03-06T02:54:11.304Z,7.81
2019-03-06T02:56:11.369Z,7.81
2019-03-06T02:58:11.389Z,7.81
2019-03-06T03:00:11.436Z,7.88
2019-03-06T03:02:11.321Z,7.88
2019-03-06T03:04:11.370Z,7.88
2019-03-06T03:06:11.380Z,7.81
2019-03-06T03:06:28.362Z,7.81
2019-03-06T03:08:11.436Z,7.94
2019-03-06T03:10:11.347Z,7.94
2019-03-06T03:12:11.374Z,7.88
2019-03-06T03:14:11.394Z,7.88
2019-03-06T03:16:11.419Z,7.94
2019-03-06T03:18:11.443Z,8
2019-03-06T03:20:11.369Z,8
2019-03-06T03:21:28.301Z,8
2019-03-06T03:22:11.430Z,8
2019-03-06T03:24:11.291Z,8.06
2019-03-06T03:26:11.488Z,7.94
2019-03-06T03:28:11.386Z,8
2019-03-06T03:30:11.423Z,8
2019-03-06T03:32:11.372Z,8
2019-03-06T03:34:11.379Z,8.06
2019-03-06T03:36:11.291Z,8.06
2019-03-06T03:36:28.224Z,8.06
2019-03-06T03:38:11.424Z,8.06
2019-03-06T03:40:11.374Z,8.06
2019-03-06T03:42:11.364Z,8.06
2019-03-06T03:44:11.441Z,8
2019-03-06T03:46:11.393Z,7.94
2019-03-06T03:48:11.386Z,7.94
2019-03-06T03:50:11.430Z,7.94
2019-03-06T03:51:28.238Z,7.88
2019-03-06T03:52:11.431Z,7.88
2019-03-06T03:54:11.420Z,7.81
2019-03-06T03:56:11.379Z,7.88
2019-03-06T03:58:11.304Z,7.94
2019-03-06T04:00:11.379Z,7.88
2019-03-06T04:02:11.439Z,7.81
2019-03-06T04:04:11.380Z,7.75
2019-03-06T04:06:11.301Z,7.81
2019-03-06T04:06:28.299Z,7.81
2019-03-06T04:08:11.373Z,7.75
2019-03-06T04:10:11.382Z,7.81
2019-03-06T04:12:11.419Z,7.88
2019-03-06T04:14:11.380Z,7.94
2019-03-06T04:16:11.416Z,7.88
2019-03-06T04:18:11.443Z,7.88
2019-03-06T04:20:11.373Z,7.81
2019-03-06T04:21:28.367Z,7.75
2019-03-06T04:22:11.396Z,7.75
2019-03-06T04:24:11.469Z,7.69
2019-03-06T04:26:11.387Z,7.69
2019-03-06T04:28:11.316Z,7.63
2019-03-06T04:30:11.430Z,7.69
2019-03-06T04:32:11.425Z,7.63
2019-03-06T04:34:11.367Z,7.69
2019-03-06T04:36:11.425Z,7.63
2019-03-06T04:36:28.212Z,7.56
2019-03-06T04:38:11.365Z,7.56
2019-03-06T04:40:11.293Z,7.5
2019-03-06T04:42:11.366Z,7.44
2019-03-06T04:44:12.262Z,7.38
2019-03-06T04:46:11.373Z,7.38
2019-03-06T04:48:11.431Z,7.31
2019-03-06T04:50:11.428Z,7.25
2019-03-06T04:51:28.362Z,7.25
2019-03-06T04:52:11.377Z,7.19
2019-03-06T04:54:11.396Z,7.19
2019-03-06T04:56:11.343Z,7.13
2019-03-06T04:58:11.373Z,7.13
2019-03-06T05:00:12.320Z,7.06
2019-03-06T05:02:11.377Z,7.06
2019-03-06T05:04:11.380Z,7
2019-03-06T05:06:11.302Z,7.06
2019-03-06T05:06:28.221Z,7.06
2019-03-06T05:08:11.372Z,7.06
2019-03-06T05:10:11.351Z,7.06
2019-03-06T05:12:11.373Z,7.06
2019-03-06T05:14:11.378Z,7.06
2019-03-06T05:16:11.376Z,7.06
2019-03-06T05:18:11.370Z,7.06
2019-03-06T05:20:11.419Z,7.06
2019-03-06T05:21:28.305Z,7.06
2019-03-06T05:22:11.457Z,7.13
2019-03-06T05:24:11.441Z,7.13
2019-03-06T05:26:11.380Z,7.13
2019-03-06T05:28:11.430Z,7.19
2019-03-06T05:30:11.377Z,7.25
2019-03-06T05:32:12.305Z,7.25
2019-03-06T05:34:11.301Z,7.19
2019-03-06T05:36:11.450Z,7.25
2019-03-06T05:36:29.102Z,7.25
2019-03-06T05:38:11.346Z,7.25
2019-03-06T05:40:11.371Z,7.25
2019-03-06T05:42:11.371Z,7.25
2019-03-06T05:44:11.361Z,7.25
2019-03-06T05:46:11.432Z,7.19
2019-03-06T05:48:11.448Z,7.25
2019-03-06T05:50:11.319Z,7.38
2019-03-06T05:51:28.329Z,7.38
2019-03-06T05:52:11.371Z,7.38
2019-03-06T05:54:11.336Z,7.38
2019-03-06T05:56:11.298Z,7.31
2019-03-06T05:58:11.308Z,7.25
2019-03-06T06:00:11.292Z,7.25
2019-03-06T06:02:11.419Z,7.25
2019-03-06T06:04:11.342Z,7.25
2019-03-06T06:06:11.378Z,7.31
2019-03-06T06:06:28.307Z,7.31
2019-03-06T06:08:11.429Z,7.38
2019-03-06T06:10:11.353Z,7.38
2019-03-06T06:12:11.413Z,7.38
2019-03-06T06:14:11.366Z,7.5
2019-03-06T06:16:12.209Z,7.5
2019-03-06T06:18:11.406Z,7.44
2019-03-06T06:20:11.418Z,7.5
2019-03-06T06:21:28.249Z,7.5
2019-03-06T06:22:11.387Z,7.5
2019-03-06T06:24:11.429Z,7.56
2019-03-06T06:26:11.347Z,7.56
2019-03-06T06:28:11.420Z,7.69
2019-03-06T06:30:11.433Z,7.81
2019-03-06T06:32:11.424Z,7.81
2019-03-06T06:34:11.341Z,7.88
2019-03-06T06:36:11.354Z,7.94
2019-03-06T06:36:28.224Z,7.94
2019-03-06T06:38:11.425Z,8
2019-03-06T06:40:11.301Z,8.06
2019-03-06T06:42:11.424Z,8.19
2019-03-06T06:44:11.315Z,8.31
2019-03-06T06:46:11.295Z,8.38
2019-03-06T06:48:12.260Z,8.44
2019-03-06T06:50:11.343Z,8.56
2019-03-06T06:51:28.297Z,8.56
2019-03-06T06:52:11.445Z,8.63
2019-03-06T06:54:11.525Z,8.69
2019-03-06T06:56:11.296Z,8.69
2019-03-06T06:58:11.409Z,8.75
2019-03-06T07:00:11.372Z,8.81
2019-03-06T07:02:11.335Z,8.81
2019-03-06T07:04:12.524Z,8.81
2019-03-06T07:06:11.419Z,8.88
2019-03-06T07:06:28.219Z,8.88
2019-03-06T07:08:11.350Z,8.81
2019-03-06T07:10:11.300Z,8.94
2019-03-06T07:12:11.391Z,9
2019-03-06T07:14:11.469Z,9
2019-03-06T07:16:11.341Z,9.13
2019-03-06T07:18:11.440Z,9.06
2019-03-06T07:20:11.437Z,9.13
2019-03-06T07:21:28.376Z,9.13
2019-03-06T07:22:11.386Z,9.13
2019-03-06T07:24:11.406Z,9.19
2019-03-06T07:26:11.380Z,9.13
2019-03-06T07:28:11.426Z,9.13
2019-03-06T07:30:11.367Z,9.19
2019-03-06T07:32:11.381Z,9.13
2019-03-06T07:34:11.347Z,9.13
2019-03-06T07:36:11.370Z,9.19
2019-03-06T07:36:28.221Z,9.19
2019-03-06T07:38:11.300Z,9.25
2019-03-06T07:40:11.368Z,9.31
2019-03-06T07:42:11.375Z,9.31
2019-03-06T07:44:11.304Z,9.25
2019-03-06T07:46:11.389Z,9.31
2019-03-06T07:48:11.399Z,9.31
2019-03-06T07:50:11.384Z,9.31
2019-03-06T07:51:28.328Z,9.38
2019-03-06T07:52:13.123Z,9.38
2019-03-06T07:54:11.325Z,9.38
2019-03-06T07:56:11.380Z,9.38
2019-03-06T07:58:16.351Z,9.38
2019-03-06T08:00:21.323Z,9.44
2019-03-06T08:02:11.418Z,9.44
2019-03-06T08:04:11.303Z,9.44
2019-03-06T08:06:11.383Z,9.44
2019-03-06T08:06:29.178Z,9.44
2019-03-06T08:08:11.458Z,9.5
2019-03-06T08:10:11.420Z,9.5
2019-03-06T08:12:11.510Z,9.56
2019-03-06T08:14:11.426Z,9.56
2019-03-06T08:16:11.454Z,9.63
2019-03-06T08:18:11.439Z,9.69
2019-03-06T08:20:12.323Z,9.75
2019-03-06T08:21:28.298Z,9.75
2019-03-06T08:22:11.451Z,9.75
2019-03-06T08:24:11.388Z,9.81
2019-03-06T08:26:11.458Z,9.81
2019-03-06T08:28:11.491Z,9.88
2019-03-06T08:30:11.291Z,9.88
2019-03-06T08:32:11.367Z,9.88
2019-03-06T08:34:11.438Z,9.94
2019-03-06T08:36:11.353Z,9.94
2019-03-06T08:36:28.309Z,9.94
2019-03-06T08:38:11.376Z,10
2019-03-06T08:40:11.418Z,10
2019-03-06T08:42:11.337Z,10
2019-03-06T08:44:11.373Z,10.06
2019-03-06T08:46:12.176Z,10.13
2019-03-06T08:48:11.386Z,10.19
2019-03-06T08:50:11.314Z,10.13
2019-03-06T08:51:28.241Z,10.19
2019-03-06T08:52:11.294Z,10.19
2019-03-06T08:54:11.340Z,10.25
2019-03-06T08:56:11.404Z,10.19
2019-03-06T08:58:11.282Z,10.25
2019-03-06T09:00:11.475Z,10.25
2019-03-06T09:02:15.413Z,10.31
2019-03-06T09:04:11.430Z,10.38
2019-03-06T09:06:11.375Z,10.44
2019-03-06T09:06:29.231Z,10.44
2019-03-06T09:08:11.348Z,10.5
2019-03-06T09:10:11.372Z,10.56
2019-03-06T09:12:11.394Z,10.63
2019-03-06T09:14:11.433Z,10.75
2019-03-06T09:16:11.434Z,10.81
2019-03-06T09:18:11.323Z,10.88
2019-03-06T09:20:11.427Z,11
2019-03-06T09:21:28.276Z,11
2019-03-06T09:22:11.360Z,11.06
2019-03-06T09:24:11.389Z,11.13
2019-03-06T09:26:11.444Z,11.25
2019-03-06T09:28:11.409Z,11.25
2019-03-06T09:30:15.891Z,11.25
2019-03-06T09:32:11.383Z,11.31
2019-03-06T09:34:11.461Z,11.31
2019-03-06T09:36:11.370Z,11.31
2019-03-06T09:36:28.335Z,11.31
2019-03-06T09:38:11.506Z,11.31
2019-03-06T09:40:11.328Z,11.38
2019-03-06T09:42:11.435Z,11.38
2019-03-06T09:44:11.398Z,11.38
2019-03-06T09:46:11.405Z,11.44
2019-03-06T09:48:12.720Z,11.44
2019-03-06T09:50:11.307Z,11.44
2019-03-06T09:51:28.297Z,11.44
2019-03-06T09:52:11.426Z,11.5
2019-03-06T09:54:11.422Z,11.5
2019-03-06T09:56:16.304Z,11.56
2019-03-06T09:58:11.430Z,11.63
2019-03-06T10:00:11.378Z,11.69
2019-03-06T10:02:11.441Z,11.75
2019-03-06T10:04:11.550Z,11.75
2019-03-06T10:06:11.487Z,11.81
2019-03-06T10:06:28.262Z,11.81
2019-03-06T10:08:11.328Z,11.81
2019-03-06T10:10:11.429Z,11.81
2019-03-06T10:12:12.238Z,11.88
2019-03-06T10:14:11.436Z,11.88
2019-03-06T10:16:12.238Z,11.88
2019-03-06T10:18:11.358Z,11.94
2019-03-06T10:20:11.388Z,11.94
2019-03-06T10:21:28.313Z,11.94
2019-03-06T10:22:11.296Z,11.94
2019-03-06T10:24:11.402Z,11.94
2019-03-06T10:26:11.288Z,12
2019-03-06T10:28:11.427Z,12.06
2019-03-06T10:30:11.428Z,12.06
2019-03-06T10:32:11.401Z,12.13
2019-03-06T10:34:11.387Z,12.25
2019-03-06T10:36:11.346Z,12.25
2019-03-06T10:36:28.217Z,12.25
2019-03-06T10:38:16.363Z,12.38
2019-03-06T10:40:11.424Z,12.38
2019-03-06T10:42:11.298Z,12.5
2019-03-06T10:44:11.311Z,12.44
2019-03-06T10:46:11.423Z,12.5
2019-03-06T10:48:11.339Z,12.56
2019-03-06T10:50:11.331Z,12.56
2019-03-06T10:51:28.236Z,12.56
2019-03-06T10:52:11.385Z,12.56
2019-03-06T10:54:11.421Z,12.69
2019-03-06T10:56:12.283Z,12.69
2019-03-06T10:58:11.404Z,12.75
2019-03-06T11:00:11.293Z,12.69
2019-03-06T11:02:12.297Z,12.69
2019-03-06T11:04:11.494Z,12.75
2019-03-06T11:06:11.425Z,12.81
2019-03-06T11:06:28.220Z,12.81
2019-03-06T11:08:11.311Z,12.88
2019-03-06T11:10:11.424Z,12.94
2019-03-06T11:12:11.333Z,12.94
2019-03-06T11:14:11.443Z,12.94
2019-03-06T11:16:11.442Z,12.94
2019-03-06T11:18:11.286Z,12.94
2019-03-06T11:20:11.281Z,13.06
2019-03-06T11:21:28.411Z,13.06
2019-03-06T11:22:11.369Z,13.13
2019-03-06T11:24:13.188Z,13.19
2019-03-06T11:26:11.360Z,13.25
2019-03-06T11:28:11.439Z,13.25
2019-03-06T11:30:11.433Z,13.31
2019-03-06T11:32:11.309Z,13.31
2019-03-06T11:34:11.370Z,13.19
2019-03-06T11:36:11.337Z,13.25
2019-03-06T11:36:28.239Z,13.25
2019-03-06T11:38:11.302Z,13.19
2019-03-06T11:40:11.378Z,13.25
2019-03-06T11:42:11.390Z,13.31
2019-03-06T11:44:11.435Z,13.25
2019-03-06T11:46:11.386Z,13.19
2019-03-06T11:48:11.451Z,13.19
2019-03-06T11:50:11.370Z,13.13
2019-03-06T11:51:28.341Z,13.13
2019-03-06T11:52:11.420Z,13.13
2019-03-06T11:54:11.302Z,13.13
2019-03-06T11:56:11.380Z,13.13
2019-03-06T11:58:11.446Z,13.19
2019-03-06T12:00:11.395Z,13.19
2019-03-06T12:02:11.403Z,13.13
2019-03-06T12:04:11.423Z,13.19
2019-03-06T12:06:11.377Z,13.19
2019-03-06T12:06:28.399Z,13.19
2019-03-06T12:08:11.347Z,13.19
2019-03-06T12:10:11.386Z,13.25
2019-03-06T12:12:11.339Z,13.25
2019-03-06T12:14:11.435Z,13.25
2019-03-06T12:16:12.185Z,13.25
2019-03-06T12:18:11.458Z,13.19
2019-03-06T12:20:11.414Z,13.13
2019-03-06T12:21:28.342Z,13.13
2019-03-06T12:22:11.402Z,13.19
2019-03-06T12:24:13.088Z,13.19
2019-03-06T12:26:12.238Z,13.19
2019-03-06T12:28:11.432Z,13.25
2019-03-06T12:30:11.460Z,13.31
2019-03-06T12:32:14.053Z,13.31
2019-03-06T12:34:12.236Z,13.44
2019-03-06T12:36:11.427Z,13.5
2019-03-06T12:36:28.357Z,13.5
2019-03-06T12:38:11.396Z,13.5
2019-03-06T12:40:12.410Z,13.5
2019-03-06T12:42:14.126Z,13.44
2019-03-06T12:44:11.483Z,13.38
2019-03-06T12:46:11.422Z,13.31
2019-03-06T12:48:11.316Z,13.25
2019-03-06T12:50:11.392Z,13.19
2019-03-06T12:51:28.374Z,13.19
2019-03-06T12:52:11.375Z,13.13
2019-03-06T12:54:11.314Z,13.06
2019-03-06T12:56:11.429Z,13.06
2019-03-06T12:58:11.372Z,13
2019-03-06T13:00:11.295Z,12.94
2019-03-06T13:02:11.504Z,12.88
2019-03-06T13:04:11.445Z,12.75
2019-03-06T13:06:11.424Z,12.69
2019-03-06T13:06:28.259Z,12.63
2019-03-06T13:10:21.364Z,12.56
2019-03-06T13:12:11.404Z,12.5
2019-03-06T13:14:11.380Z,12.44
2019-03-06T13:16:11.293Z,12.38
2019-03-06T13:18:11.385Z,12.44
2019-03-06T13:20:11.441Z,12.38
2019-03-06T13:21:28.247Z,12.31
2019-03-06T13:22:12.283Z,12.31
2019-03-06T13:24:11.437Z,12.31
2019-03-06T13:26:11.398Z,12.25
2019-03-06T13:28:11.389Z,12.19
2019-03-06T13:30:11.391Z,12.19
2019-03-06T13:32:11.841Z,12.19
2019-03-06T13:34:11.387Z,12.19
2019-03-06T13:36:12.325Z,12.19
2019-03-06T13:36:28.346Z,12.19
2019-03-06T13:38:11.357Z,12.19
2019-03-06T13:40:21.437Z,12.19
2019-03-06T13:42:11.446Z,12.19
2019-03-06T13:44:11.383Z,12.19
2019-03-06T13:46:11.440Z,12.19
2019-03-06T13:48:11.376Z,12.13
2019-03-06T13:50:11.660Z,12.19
2019-03-06T13:51:28.374Z,12.13
2019-03-06T13:52:11.385Z,12.19
2019-03-06T13:54:11.646Z,12.13
2019-03-06T13:56:11.380Z,12.13
2019-03-06T13:58:11.353Z,12.19
2019-03-06T14:00:11.396Z,12.31
2019-03-06T14:02:11.380Z,12.31
2019-03-06T14:04:11.406Z,12.44
2019-03-06T14:06:11.411Z,12.56
2019-03-06T14:06:28.308Z,12.56
2019-03-06T14:08:11.377Z,12.69
2019-03-06T14:10:11.391Z,12.75
2019-03-06T14:12:11.439Z,12.81
2019-03-06T14:14:11.399Z,12.69
2019-03-06T14:16:11.367Z,12.69
2019-03-06T14:18:11.379Z,12.69
2019-03-06T14:20:11.306Z,12.69
2019-03-06T14:21:28.374Z,12.69
2019-03-06T14:22:11.346Z,12.75
2019-03-06T14:24:11.390Z,12.5
2019-03-06T14:26:11.298Z,12.5
2019-03-06T14:28:11.395Z,12.5
2019-03-06T14:30:11.398Z,12.44
2019-03-06T14:32:14.478Z,12.56
2019-03-06T14:34:11.366Z,12.56
2019-03-06T14:36:11.352Z,12.56
2019-03-06T14:36:28.232Z,12.56
2019-03-06T14:38:11.314Z,12.63
2019-03-06T14:40:11.436Z,12.69
2019-03-06T14:42:11.372Z,12.69
2019-03-06T14:44:12.278Z,12.63
2019-03-06T14:46:16.415Z,12.63
2019-03-06T14:48:11.404Z,12.69
2019-03-06T14:50:11.386Z,12.63
2019-03-06T14:51:28.604Z,12.63
2019-03-06T14:52:11.372Z,12.63
2019-03-06T14:54:11.431Z,12.75
2019-03-06T14:56:11.377Z,12.75
2019-03-06T14:58:11.404Z,12.69
2019-03-06T15:00:11.545Z,12.69
2019-03-06T15:02:11.431Z,12.75
2019-03-06T15:04:11.390Z,12.75
2019-03-06T15:06:12.736Z,12.75
2019-03-06T15:06:28.344Z,12.75
2019-03-06T15:08:11.343Z,12.81
2019-03-06T15:10:11.381Z,12.88
2019-03-06T15:12:11.306Z,12.81
2019-03-06T15:14:11.292Z,12.81
2019-03-06T15:16:11.307Z,12.81
2019-03-06T15:18:11.449Z,12.88
2019-03-06T15:20:11.386Z,12.81
2019-03-06T15:21:28.298Z,12.81
2019-03-06T15:22:11.439Z,12.81
2019-03-06T15:24:11.423Z,12.88
2019-03-06T15:26:12.176Z,12.81
2019-03-06T15:28:11.435Z,12.81
2019-03-06T15:30:11.300Z,12.88
2019-03-06T15:32:11.388Z,12.88
2019-03-06T15:34:11.449Z,12.81
2019-03-06T15:36:11.315Z,12.81
2019-03-06T15:36:28.306Z,12.81
2019-03-06T15:38:11.428Z,12.75
2019-03-06T15:40:11.385Z,12.81
2019-03-06T15:42:11.298Z,12.75
2019-03-06T15:44:11.429Z,12.69
2019-03-06T15:46:11.436Z,12.69
2019-03-06T15:48:13.094Z,12.63
2019-03-06T15:50:11.407Z,12.56
2019-03-06T15:51:28.368Z,12.56
2019-03-06T15:52:11.402Z,12.56
2019-03-06T15:54:11.378Z,12.44
2019-03-06T15:56:11.398Z,12.44
2019-03-06T15:58:11.446Z,12.38
2019-03-06T16:00:11.426Z,12.31
2019-03-06T16:02:11.347Z,12.31
2019-03-06T16:04:11.357Z,12.25
2019-03-06T16:06:20.058Z,12.19
2019-03-06T16:06:28.329Z,12.19
2019-03-06T16:08:11.337Z,12.13
2019-03-06T16:10:11.317Z,12.06
2019-03-06T16:12:12.263Z,12.06
2019-03-06T16:14:11.436Z,12
2019-03-06T16:16:11.351Z,11.94
2019-03-06T16:18:11.384Z,12
2019-03-06T16:20:11.453Z,11.94
2019-03-06T16:21:28.372Z,12
2019-03-06T16:22:11.390Z,12
2019-03-06T16:24:11.312Z,12
2019-03-06T16:26:11.340Z,12
2019-03-06T16:28:11.416Z,12
2019-03-06T16:30:11.431Z,11.94
2019-03-06T16:32:11.464Z,11.94
2019-03-06T16:34:11.410Z,11.94
2019-03-06T16:36:11.515Z,11.88
2019-03-06T16:36:28.315Z,11.88
2019-03-06T16:38:11.389Z,11.88
2019-03-06T16:40:11.367Z,11.81
2019-03-06T16:42:11.449Z,11.75
2019-03-06T16:44:11.379Z,11.81
2019-03-06T16:46:11.369Z,11.88
2019-03-06T16:48:12.289Z,11.75
2019-03-06T16:50:14.441Z,11.69
2019-03-06T16:51:28.365Z,11.69
2019-03-06T16:52:11.386Z,11.69
2019-03-06T16:54:11.394Z,11.63
2019-03-06T16:56:11.387Z,11.63
2019-03-06T16:58:11.374Z,11.5
2019-03-06T17:00:11.359Z,11.56
2019-03-06T17:02:11.400Z,11.44
2019-03-06T17:04:11.378Z,11.38
2019-03-06T17:06:11.463Z,11.38
2019-03-06T17:06:28.406Z,11.44
2019-03-06T17:08:11.421Z,11.38
2019-03-06T17:10:11.314Z,11.44
2019-03-06T17:12:11.382Z,11.44
2019-03-06T17:14:11.312Z,11.44
2019-03-06T17:16:11.452Z,11.38
2019-03-06T17:18:11.439Z,11.44
2019-03-06T17:20:12.311Z,11.44
2019-03-06T17:21:28.279Z,11.5
2019-03-06T17:22:11.493Z,11.5
2019-03-06T17:24:11.303Z,11.5
2019-03-06T17:26:11.508Z,11.44
2019-03-06T17:28:11.351Z,11.56
2019-03-06T17:30:11.429Z,11.56
2019-03-06T17:32:11.380Z,11.5
2019-03-06T17:34:11.389Z,11.5
2019-03-06T17:36:11.424Z,11.5
2019-03-06T17:36:28.258Z,11.5
2019-03-06T17:38:11.431Z,11.44
2019-03-06T17:40:11.428Z,11.31
2019-03-06T17:42:11.341Z,11.31
2019-03-06T17:44:11.452Z,11.38
2019-03-06T17:46:11.426Z,11.31
2019-03-06T17:48:12.696Z,11.31
2019-03-06T17:50:11.953Z,11.38
2019-03-06T17:51:28.382Z,11.38
2019-03-06T17:52:11.521Z,11.38
2019-03-06T17:54:11.459Z,11.38
2019-03-06T17:56:11.353Z,11.31
2019-03-06T17:58:11.312Z,11.44
2019-03-06T18:00:16.797Z,11.38
2019-03-06T18:02:11.460Z,11.38
2019-03-06T18:04:11.356Z,11.38
2019-03-06T18:06:11.491Z,11.44
2019-03-06T18:06:28.339Z,11.44
2019-03-06T18:08:11.587Z,11.38
2019-03-06T18:10:11.348Z,11.38
2019-03-06T18:12:11.398Z,11.31
2019-03-06T18:14:11.299Z,11.38
2019-03-06T18:16:11.376Z,11.38
2019-03-06T18:18:11.452Z,11.44
2019-03-06T18:20:11.320Z,11.44
2019-03-06T18:21:28.394Z,11.44
2019-03-06T18:22:11.399Z,11.44
2019-03-06T18:24:11.361Z,11.44
2019-03-06T18:26:11.316Z,11.38
2019-03-06T18:28:11.447Z,11.31
2019-03-06T18:30:11.387Z,11.38
2019-03-06T18:32:11.443Z,11.38
2019-03-06T18:34:11.404Z,11.31
2019-03-06T18:36:12.930Z,11.31
2019-03-06T18:36:28.359Z,11.38
2019-03-06T18:38:11.545Z,11.38
2019-03-06T18:40:11.406Z,11.38
2019-03-06T18:42:11.415Z,11.31
2019-03-06T18:44:11.405Z,11.31
2019-03-06T18:46:11.463Z,11.25
2019-03-06T18:48:11.429Z,11.31
2019-03-06T18:50:11.334Z,11.31
2019-03-06T18:51:28.372Z,11.31
2019-03-06T18:52:11.341Z,11.25
2019-03-06T18:54:11.392Z,11.25
2019-03-06T18:56:11.384Z,11.31
2019-03-06T18:58:12.999Z,11.25
2019-03-06T19:00:11.400Z,11.31
2019-03-06T19:02:12.188Z,11.25
2019-03-06T19:04:11.290Z,11.25
2019-03-06T19:06:11.566Z,11.25
2019-03-06T19:06:28.345Z,11.31
2019-03-06T19:08:11.304Z,11.31
2019-03-06T19:10:11.423Z,11.31
2019-03-06T19:12:11.316Z,11.38
2019-03-06T19:14:11.471Z,11.31
2019-03-06T19:16:11.409Z,11.31
2019-03-06T19:18:11.310Z,11.25
2019-03-06T19:20:11.456Z,11.25
2019-03-06T19:21:28.248Z,11.19
2019-03-06T19:22:11.396Z,11.19
2019-03-06T19:24:11.534Z,11.19
2019-03-06T19:26:11.370Z,11.19
2019-03-06T19:28:12.236Z,11.19
2019-03-06T19:30:11.375Z,11.25
2019-03-06T19:32:11.440Z,11.19
2019-03-06T19:34:11.418Z,11.19
2019-03-06T19:36:11.425Z,11.19
2019-03-06T19:36:28.238Z,11.13
2019-03-06T19:38:11.306Z,11.13
2019-03-06T19:40:11.421Z,11.06
2019-03-06T19:42:11.435Z,11
2019-03-06T19:44:11.431Z,10.94
2019-03-06T19:46:11.335Z,10.88
2019-03-06T19:48:11.381Z,10.88
2019-03-06T19:50:11.385Z,10.81
2019-03-06T19:51:28.365Z,10.81
2019-03-06T19:52:11.397Z,10.75
2019-03-06T19:54:11.298Z,10.81
2019-03-06T19:56:11.293Z,10.81
2019-03-06T19:58:12.243Z,10.81
2019-03-06T20:00:11.377Z,10.81
2019-03-06T20:02:11.292Z,10.88
2019-03-06T20:04:11.399Z,10.81
2019-03-06T20:06:12.270Z,10.81
2019-03-06T20:06:29.229Z,10.75
2019-03-06T20:08:11.362Z,10.81
2019-03-06T20:10:11.394Z,10.81
2019-03-06T20:12:11.391Z,10.75
2019-03-06T20:14:11.427Z,10.75
2019-03-06T20:16:11.454Z,10.75
2019-03-06T20:18:11.303Z,10.75
2019-03-06T20:20:11.342Z,10.69
2019-03-06T20:21:28.331Z,10.69
2019-03-06T20:22:11.432Z,10.69
2019-03-06T20:24:11.325Z,10.69
2019-03-06T20:26:13.936Z,10.69
2019-03-06T20:28:11.429Z,10.63
2019-03-06T20:30:11.425Z,10.63
2019-03-06T20:32:11.460Z,10.63
2019-03-06T20:34:11.485Z,10.63
2019-03-06T20:36:11.468Z,10.63
2019-03-06T20:36:28.251Z,10.63
2019-03-06T20:38:11.294Z,10.63
2019-03-06T20:40:11.442Z,10.63
2019-03-06T20:42:11.428Z,10.63
2019-03-06T20:44:11.430Z,10.69
2019-03-06T20:46:12.255Z,10.75
2019-03-06T20:48:11.394Z,10.75
2019-03-06T20:50:11.389Z,10.75
2019-03-06T20:51:28.271Z,10.75
2019-03-06T20:52:11.422Z,10.75
2019-03-06T20:54:11.484Z,10.75
2019-03-06T20:56:11.454Z,10.75
2019-03-06T20:58:11.432Z,10.81
2019-03-06T21:00:11.384Z,10.75
2019-03-06T21:02:11.379Z,10.75
2019-03-06T21:04:11.388Z,10.81
2019-03-06T21:06:11.301Z,10.81
2019-03-06T21:06:33.355Z,10.81
2019-03-06T21:08:11.405Z,10.81
2019-03-06T21:10:11.396Z,10.88
2019-03-06T21:12:11.439Z,10.88
2019-03-06T21:14:11.593Z,10.88
2019-03-06T21:16:11.466Z,10.88
2019-03-06T21:18:11.430Z,10.81
2019-03-06T21:20:11.371Z,10.81
2019-03-06T21:21:28.291Z,10.81
2019-03-06T21:22:11.352Z,10.75
2019-03-06T21:24:12.174Z,10.81
2019-03-06T21:26:11.535Z,10.81
2019-03-06T21:28:11.371Z,10.81
2019-03-06T21:30:11.425Z,10.81
2019-03-06T21:32:11.294Z,10.81
2019-03-06T21:34:11.468Z,10.81
2019-03-06T21:36:11.421Z,10.88
2019-03-06T21:36:28.317Z,10.88
2019-03-06T21:38:11.381Z,10.88
2019-03-06T21:40:11.479Z,10.88
2019-03-06T21:42:11.427Z,10.88
2019-03-06T21:44:11.333Z,10.88
2019-03-06T21:46:11.467Z,10.94
2019-03-06T21:48:11.428Z,10.88
2019-03-06T21:50:11.373Z,10.88
2019-03-06T21:51:28.390Z,10.88
2019-03-06T21:52:12.255Z,10.88
2019-03-06T21:54:11.367Z,10.88
2019-03-06T21:56:11.686Z,10.88
2019-03-06T21:58:11.368Z,10.88
2019-03-06T22:00:11.415Z,10.88
2019-03-06T22:02:11.294Z,10.88
2019-03-06T22:04:11.374Z,10.88
2019-03-06T22:06:11.455Z,10.81
2019-03-06T22:06:28.227Z,10.81
2019-03-06T22:08:11.378Z,10.81
2019-03-06T22:10:11.397Z,10.88
2019-03-06T22:12:11.381Z,10.88
2019-03-06T22:14:11.434Z,10.88
2019-03-06T22:16:11.424Z,10.81
2019-03-06T22:18:11.294Z,10.88
2019-03-06T22:20:11.425Z,10.88
2019-03-06T22:21:28.321Z,10.81
2019-03-06T22:22:11.437Z,10.81
2019-03-06T22:24:11.331Z,10.88
2019-03-06T22:26:11.439Z,10.88
2019-03-06T22:28:12.244Z,10.88
2019-03-06T22:30:11.313Z,10.88
2019-03-06T22:32:11.389Z,10.88
2019-03-06T22:34:11.306Z,10.88
2019-03-06T22:36:11.475Z,10.88
2019-03-06T22:36:28.224Z,10.88
2019-03-06T22:38:12.453Z,10.88
2019-03-06T22:40:11.406Z,10.88
2019-03-06T22:42:11.349Z,10.94
2019-03-06T22:44:11.610Z,10.94
2019-03-06T22:46:11.420Z,10.94
2019-03-06T22:48:11.443Z,10.94
2019-03-06T22:50:11.409Z,10.88
2019-03-06T22:51:28.308Z,10.94
2019-03-06T22:52:11.387Z,10.94
2019-03-06T22:54:12.816Z,10.94
2019-03-06T22:56:11.370Z,10.88
2019-03-06T22:58:12.462Z,10.88
2019-03-06T23:00:11.387Z,10.88
2019-03-06T23:02:11.458Z,10.81
2019-03-06T23:04:11.383Z,10.88
2019-03-06T23:06:11.343Z,10.81
2019-03-06T23:06:28.219Z,10.81